Time;durP1;ratioP1;P1;durP2;ratioP2;P2;SDS_P1;SDS_P2;PMS_P1;PMS_P2;Temp;Humidity;BMP_temperature;BMP_pressure;BME280_temperature;BME280_humidity;BME280_pressure;Samples;Min_cycle;Max_cycle;Signal;HPM_P1;HPM_P2
2023/03/29 00:01:35;;;;;;;27.20;4.70;;;;;;;-128.00;-1.00;-1.00;97904;294;1003267;-33
2023/03/29 00:04:02;;;;;;;9.40;2.90;;;;;;;-128.00;-1.00;-1.00;98042;294;1002948;-33
2023/03/29 00:06:31;;;;;;;7.70;2.80;;;;;;;-128.00;-1.00;-1.00;98042;294;1004783;-30
2023/03/29 00:08:58;;;;;;;11.20;3.60;;;;;;;-128.00;-1.00;-1.00;97937;294;1003452;-28
2023/03/29 00:11:24;;;;;;;14.30;4.40;;;;;;;-128.00;-1.00;-1.00;97876;294;1002845;-33
2023/03/29 00:13:50;;;;;;;7.30;3.60;;;;;;;-128.00;-1.00;-1.00;97918;294;1002918;-32
2023/03/29 00:16:16;;;;;;;6.70;2.80;;;;;;;-128.00;-1.00;-1.00;98090;294;1004922;-33
2023/03/29 00:18:43;;;;;;;9.30;3.20;;;;;;;-128.00;-1.00;-1.00;97856;294;1004271;-29
2023/03/29 00:21:09;;;;;;;9.70;3.90;;;;;;;-128.00;-1.00;-1.00;97849;295;1003277;-28
2023/03/29 00:23:34;;;;;;;5.70;2.40;;;;;;;-128.00;-1.00;-1.00;98041;294;1002883;-33
2023/03/29 00:26:00;;;;;;;3.70;1.60;;;;;;;-128.00;-1.00;-1.00;97835;294;1002912;-28
2023/03/29 00:28:26;;;;;;;5.80;2.00;;;;;;;-128.00;-1.00;-1.00;97868;294;1003653;-32
2023/03/29 00:30:51;;;;;;;7.60;3.20;;;;;;;-128.00;-1.00;-1.00;97949;294;1003571;-30
2023/03/29 00:33:19;;;;;;;9.20;2.60;;;;;;;-128.00;-1.00;-1.00;97985;294;1004103;-28
2023/03/29 00:35:47;;;;;;;4.70;2.40;;;;;;;-128.00;-1.00;-1.00;97950;294;1004789;-34
2023/03/29 00:38:16;;;;;;;10.40;2.70;;;;;;;-128.00;-1.00;-1.00;97983;283;1003838;-32
2023/03/29 00:40:44;;;;;;;7.70;2.40;;;;;;;-128.00;-1.00;-1.00;98103;294;1003721;-34
2023/03/29 00:43:11;;;;;;;6.40;3.20;;;;;;;-128.00;-1.00;-1.00;97858;294;1004747;-28
2023/03/29 00:45:36;;;;;;;10.30;3.80;;;;;;;-128.00;-1.00;-1.00;97983;294;1003699;-28
2023/03/29 00:48:05;;;;;;;15.90;3.60;;;;;;;-128.00;-1.00;-1.00;98024;287;1003427;-33
2023/03/29 00:50:35;;;;;;;12.40;3.70;;;;;;;-128.00;-1.00;-1.00;97864;294;1003583;-29
2023/03/29 00:53:13;;;;;;;6.30;2.30;;;;;;;-128.00;-1.00;-1.00;97841;294;1004429;-29
2023/03/29 00:55:52;;;;;;;10.60;3.50;;;;;;;-128.00;-1.00;-1.00;97938;294;1004363;-29
2023/03/29 00:58:42;;;;;;;7.80;3.30;;;;;;;-128.00;-1.00;-1.00;97939;294;1003209;-36
2023/03/29 01:01:18;;;;;;;5.90;3.30;;;;;;;-128.00;-1.00;-1.00;97996;294;1003762;-32
2023/03/29 01:03:49;;;;;;;7.80;3.70;;;;;;;-128.00;-1.00;-1.00;98013;294;1003227;-32
2023/03/29 01:06:15;;;;;;;17.50;5.40;;;;;;;-128.00;-1.00;-1.00;98029;294;1003197;-33
2023/03/29 01:08:47;;;;;;;14.10;4.50;;;;;;;-128.00;-1.00;-1.00;97886;294;1003219;-33
2023/03/29 01:11:18;;;;;;;13.00;4.40;;;;;;;-128.00;-1.00;-1.00;98000;294;1003842;-27
2023/03/29 01:13:48;;;;;;;4.90;2.40;;;;;;;-128.00;-1.00;-1.00;97940;294;1003275;-33
2023/03/29 01:16:13;;;;;;;12.30;4.50;;;;;;;-128.00;-1.00;-1.00;97936;294;1002408;-32
2023/03/29 01:18:40;;;;;;;10.90;4.80;;;;;;;-128.00;-1.00;-1.00;98038;294;1003119;-29
2023/03/29 01:21:14;;;;;;;7.00;3.80;;;;;;;-128.00;-1.00;-1.00;97854;294;1002847;-29
2023/03/29 01:24:05;;;;;;;8.40;3.50;;;;;;;-128.00;-1.00;-1.00;97910;295;1003724;-33
2023/03/29 01:26:55;;;;;;;11.60;3.40;;;;;;;-128.00;-1.00;-1.00;97826;294;1004749;-33
2023/03/29 01:29:30;;;;;;;11.90;4.60;;;;;;;-128.00;-1.00;-1.00;97844;294;1003436;-34
2023/03/29 01:32:09;;;;;;;16.90;4.70;;;;;;;-128.00;-1.00;-1.00;98047;294;1003413;-28
2023/03/29 01:34:51;;;;;;;11.80;4.90;;;;;;;-128.00;-1.00;-1.00;97890;296;1003738;-30
2023/03/29 01:37:23;;;;;;;11.60;4.40;;;;;;;-128.00;-1.00;-1.00;97862;287;1002539;-29
2023/03/29 01:39:51;;;;;;;19.90;7.30;;;;;;;-128.00;-1.00;-1.00;98022;294;1004124;-28
2023/03/29 01:42:29;;;;;;;13.10;5.20;;;;;;;-128.00;-1.00;-1.00;97934;294;1003813;-29
2023/03/29 01:44:57;;;;;;;15.60;4.70;;;;;;;-128.00;-1.00;-1.00;97928;294;1003566;-34
2023/03/29 01:47:30;;;;;;;9.60;4.50;;;;;;;-128.00;-1.00;-1.00;97829;294;1003150;-29
2023/03/29 01:50:02;;;;;;;15.40;5.20;;;;;;;-128.00;-1.00;-1.00;97865;294;1005288;-30
2023/03/29 01:52:32;;;;;;;13.10;5.30;;;;;;;-128.00;-1.00;-1.00;97860;294;1004622;-33
2023/03/29 01:55:12;;;;;;;8.80;4.60;;;;;;;-128.00;-1.00;-1.00;97862;294;1004442;-28
2023/03/29 01:57:37;;;;;;;14.80;3.90;;;;;;;-128.00;-1.00;-1.00;97880;294;1004622;-30
2023/03/29 02:00:08;;;;;;;9.40;4.60;;;;;;;-128.00;-1.00;-1.00;97907;294;1002918;-30
2023/03/29 02:02:34;;;;;;;11.20;4.20;;;;;;;-128.00;-1.00;-1.00;97899;294;1002968;-32
2023/03/29 02:05:00;;;;;;;12.50;4.30;;;;;;;-128.00;-1.00;-1.00;98001;294;1003698;-29
2023/03/29 02:07:29;;;;;;;17.90;5.80;;;;;;;-128.00;-1.00;-1.00;97860;294;1003127;-29
2023/03/29 02:09:56;;;;;;;17.80;5.40;;;;;;;-128.00;-1.00;-1.00;97948;294;1003380;-28
2023/03/29 02:12:22;;;;;;;10.80;4.30;;;;;;;-128.00;-1.00;-1.00;97917;294;1004324;-32
2023/03/29 02:14:48;;;;;;;11.70;4.50;;;;;;;-128.00;-1.00;-1.00;97938;296;1003658;-29
2023/03/29 02:17:19;;;;;;;8.30;4.30;;;;;;;-128.00;-1.00;-1.00;98085;294;1003410;-28
2023/03/29 02:19:58;;;;;;;8.50;4.40;;;;;;;-128.00;-1.00;-1.00;97969;294;1003576;-28
2023/03/29 02:22:27;;;;;;;8.80;4.20;;;;;;;-128.00;-1.00;-1.00;97970;295;1003491;-28
2023/03/29 02:24:55;;;;;;;12.10;4.30;;;;;;;-128.00;-1.00;-1.00;97963;294;1002775;-29
2023/03/29 02:27:21;;;;;;;9.20;4.40;;;;;;;-128.00;-1.00;-1.00;98003;294;1003136;-32
2023/03/29 02:29:46;;;;;;;21.30;7.60;;;;;;;-128.00;-1.00;-1.00;97917;294;1005005;-35
2023/03/29 02:32:16;;;;;;;20.10;6.70;;;;;;;-128.00;-1.00;-1.00;97941;283;1003635;-28
2023/03/29 02:34:48;;;;;;;15.10;6.10;;;;;;;-128.00;-1.00;-1.00;97856;294;1002431;-33
2023/03/29 02:37:16;;;;;;;20.40;8.00;;;;;;;-128.00;-1.00;-1.00;97912;295;1004114;-28
2023/03/29 02:39:42;;;;;;;16.90;6.60;;;;;;;-128.00;-1.00;-1.00;97918;294;1003821;-29
2023/03/29 02:42:07;;;;;;;18.70;8.50;;;;;;;-128.00;-1.00;-1.00;98022;294;1003315;-32
2023/03/29 02:44:36;;;;;;;15.30;6.60;;;;;;;-128.00;-1.00;-1.00;98003;294;1003861;-34
2023/03/29 02:47:06;;;;;;;30.80;7.40;;;;;;;-128.00;-1.00;-1.00;97955;294;1003663;-33
2023/03/29 02:49:32;;;;;;;30.30;8.40;;;;;;;-128.00;-1.00;-1.00;97804;294;1004054;-32
2023/03/29 02:52:00;;;;;;;13.20;6.00;;;;;;;-128.00;-1.00;-1.00;97924;294;1002532;-35
2023/03/29 02:54:28;;;;;;;13.80;6.40;;;;;;;-128.00;-1.00;-1.00;97902;283;1002689;-29
2023/03/29 02:56:59;;;;;;;25.40;7.80;;;;;;;-128.00;-1.00;-1.00;97824;294;1002805;-28
2023/03/29 02:59:24;;;;;;;23.70;7.00;;;;;;;-128.00;-1.00;-1.00;97801;294;1004522;-29
2023/03/29 03:01:51;;;;;;;26.20;8.00;;;;;;;-128.00;-1.00;-1.00;97917;294;1002868;-35
2023/03/29 03:04:17;;;;;;;17.90;7.50;;;;;;;-128.00;-1.00;-1.00;98103;294;1003162;-34
2023/03/29 03:06:43;;;;;;;22.10;7.20;;;;;;;-128.00;-1.00;-1.00;97886;294;1002772;-34
2023/03/29 03:09:08;;;;;;;15.60;5.70;;;;;;;-128.00;-1.00;-1.00;97783;294;1004220;-33
2023/03/29 03:11:34;;;;;;;26.30;7.00;;;;;;;-128.00;-1.00;-1.00;97886;294;1003986;-28
2023/03/29 03:14:00;;;;;;;29.00;7.30;;;;;;;-128.00;-1.00;-1.00;97913;294;1003002;-30
2023/03/29 03:16:26;;;;;;;27.90;7.50;;;;;;;-128.00;-1.00;-1.00;97975;294;1003027;-29
2023/03/29 03:18:54;;;;;;;28.20;8.40;;;;;;;-128.00;-1.00;-1.00;97959;294;1004698;-35
2023/03/29 03:21:21;;;;;;;22.30;7.50;;;;;;;-128.00;-1.00;-1.00;97969;294;1003082;-30
2023/03/29 03:23:47;;;;;;;13.70;6.30;;;;;;;-128.00;-1.00;-1.00;97944;294;1003027;-33
2023/03/29 03:26:14;;;;;;;17.60;6.60;;;;;;;-128.00;-1.00;-1.00;97821;283;1003808;-33
2023/03/29 03:28:40;;;;;;;11.30;6.00;;;;;;;-128.00;-1.00;-1.00;98016;294;1004403;-33
2023/03/29 03:31:05;;;;;;;21.70;6.40;;;;;;;-128.00;-1.00;-1.00;97896;294;1003459;-29
2023/03/29 03:33:31;;;;;;;19.50;6.40;;;;;;;-128.00;-1.00;-1.00;97930;294;1003066;-29
2023/03/29 03:36:01;;;;;;;17.10;5.50;;;;;;;-128.00;-1.00;-1.00;97812;294;1003388;-29
2023/03/29 03:38:28;;;;;;;16.40;6.50;;;;;;;-128.00;-1.00;-1.00;97859;294;1005300;-35
2023/03/29 03:40:54;;;;;;;18.10;5.80;;;;;;;-128.00;-1.00;-1.00;97901;294;1003389;-31
2023/03/29 03:43:20;;;;;;;16.90;6.70;;;;;;;-128.00;-1.00;-1.00;97970;294;1003569;-29
2023/03/29 03:45:46;;;;;;;15.20;6.30;;;;;;;-128.00;-1.00;-1.00;97887;295;1002922;-29
2023/03/29 03:48:12;;;;;;;16.30;5.30;;;;;;;-128.00;-1.00;-1.00;97867;294;1003621;-27
2023/03/29 03:50:38;;;;;;;21.00;6.00;;;;;;;-128.00;-1.00;-1.00;97869;294;1002523;-33
2023/03/29 03:53:04;;;;;;;22.90;7.80;;;;;;;-128.00;-1.00;-1.00;97922;294;1004237;-34
2023/03/29 03:55:31;;;;;;;24.70;6.20;;;;;;;-128.00;-1.00;-1.00;97822;294;1004841;-29
2023/03/29 03:57:56;;;;;;;18.10;5.80;;;;;;;-128.00;-1.00;-1.00;97816;294;1005472;-34
2023/03/29 04:00:22;;;;;;;17.30;5.80;;;;;;;-128.00;-1.00;-1.00;97846;294;1004551;-34
2023/03/29 04:02:48;;;;;;;7.50;3.10;;;;;;;-128.00;-1.00;-1.00;97884;294;1003453;-29
2023/03/29 04:05:15;;;;;;;15.60;6.80;;;;;;;-128.00;-1.00;-1.00;97881;294;1004245;-35
2023/03/29 04:07:41;;;;;;;15.70;5.10;;;;;;;-128.00;-1.00;-1.00;97838;294;1004695;-32
2023/03/29 04:10:08;;;;;;;11.70;5.10;;;;;;;-128.00;-1.00;-1.00;97887;294;1003349;-28
2023/03/29 04:12:34;;;;;;;17.80;5.60;;;;;;;-128.00;-1.00;-1.00;97968;296;1003786;-33
2023/03/29 04:15:01;;;;;;;10.60;4.70;;;;;;;-128.00;-1.00;-1.00;97939;287;1003202;-29
2023/03/29 04:17:26;;;;;;;14.20;6.70;;;;;;;-128.00;-1.00;-1.00;97885;294;1003228;-29
2023/03/29 04:19:52;;;;;;;17.10;5.10;;;;;;;-128.00;-1.00;-1.00;97926;294;1002970;-29
2023/03/29 04:22:18;;;;;;;18.00;6.70;;;;;;;-128.00;-1.00;-1.00;97982;294;1004347;-34
2023/03/29 04:24:43;;;;;;;57.20;15.00;;;;;;;-128.00;-1.00;-1.00;97822;294;1003063;-33
2023/03/29 04:27:09;;;;;;;33.40;11.00;;;;;;;-128.00;-1.00;-1.00;97782;294;1003631;-32
2023/03/29 04:29:35;;;;;;;21.20;9.70;;;;;;;-128.00;-1.00;-1.00;98015;294;1003754;-32
2023/03/29 04:32:01;;;;;;;36.00;14.30;;;;;;;-128.00;-1.00;-1.00;97979;296;1003859;-33
2023/03/29 04:34:26;;;;;;;44.00;20.40;;;;;;;-128.00;-1.00;-1.00;97975;294;1003140;-33
2023/03/29 04:36:52;;;;;;;51.70;20.30;;;;;;;-128.00;-1.00;-1.00;97895;294;1003691;-30
2023/03/29 05:15:20;;;;;;;53.20;15.20;;;;;;;-103.52;19.20;19987.44;98245;295;1543401;-33
2023/03/29 05:17:47;;;;;;;44.80;12.80;;;;;;;-128.00;-1.00;-1.00;97580;295;1002749;-32
2023/03/29 05:20:14;;;;;;;41.70;13.90;;;;;;;-128.00;-1.00;-1.00;97908;295;1002969;-30
2023/03/29 05:22:40;;;;;;;65.40;15.10;;;;;;;-128.00;-1.00;-1.00;97831;295;1003498;-29
2023/03/29 05:25:06;;;;;;;99.70;20.20;;;;;;;-128.00;-1.00;-1.00;97923;295;1003772;-32
2023/03/29 05:27:32;;;;;;;83.40;16.60;;;;;;;-128.00;-1.00;-1.00;97881;295;1004397;-33
2023/03/29 05:29:58;;;;;;;80.90;16.20;;;;;;;-128.00;-1.00;-1.00;97901;295;1003900;-34
2023/03/29 05:32:24;;;;;;;61.90;12.90;;;;;;;-128.00;-1.00;-1.00;97901;296;1003145;-31
2023/03/29 05:34:50;;;;;;;44.50;11.60;;;;;;;-128.00;-1.00;-1.00;97820;295;1003049;-33
2023/03/29 05:37:16;;;;;;;37.30;10.40;;;;;;;-128.00;-1.00;-1.00;97905;295;1003528;-34
2023/03/29 05:39:42;;;;;;;23.20;7.60;;;;;;;-128.00;-1.00;-1.00;97924;295;1002990;-34
2023/03/29 05:42:11;;;;;;;25.10;7.90;;;;;;;-128.00;-1.00;-1.00;97919;295;1003050;-28
2023/03/29 05:44:37;;;;;;;29.90;7.00;;;;;;;-128.00;-1.00;-1.00;97921;295;1003732;-33
2023/03/29 05:47:05;;;;;;;15.50;7.60;;;;;;;-128.00;-1.00;-1.00;37831;297;7504131;-30
2023/03/29 05:49:33;;;;;;;20.00;7.30;;;;;;;-128.00;-1.00;-1.00;36402;295;7505807;-32
2023/03/29 05:52:01;;;;;;;20.50;6.00;;;;;;;-128.00;-1.00;-1.00;21644;296;7504673;-30
2023/03/29 05:54:26;;;;;;;16.20;5.00;;;;;;;-128.00;-1.00;-1.00;18458;288;7506990;-33
2023/03/29 05:56:52;;;;;;;17.00;5.50;;;;;;;-128.00;-1.00;-1.00;18480;296;7504455;-33
2023/03/29 05:59:19;;;;;;;12.70;5.80;;;;;;;-128.00;-1.00;-1.00;18883;307;7504559;-33
2023/03/29 06:01:46;;;;;;;15.90;6.50;;;;;;;-128.00;-1.00;-1.00;18484;288;7504925;-30
2023/03/29 06:04:14;;;;;;;20.30;5.50;;;;;;;-128.00;-1.00;-1.00;18465;295;7505116;-29
2023/03/29 06:06:40;;;;;;;18.70;4.80;;;;;;;-128.00;-1.00;-1.00;18484;297;7504579;-30
2023/03/29 06:09:07;;;;;;;9.80;4.50;;;;;;;-128.00;-1.00;-1.00;18463;285;7505112;-34
2023/03/29 06:11:33;;;;;;;12.10;5.40;;;;;;;-128.00;-1.00;-1.00;18482;295;7505946;-33
2023/03/29 06:14:01;;;;;;;8.80;3.80;;;;;;;-128.00;-1.00;-1.00;18473;336;7505273;-30
2023/03/29 06:16:27;;;;;;;7.30;4.10;;;;;;;-128.00;-1.00;-1.00;18476;323;7504854;-34
2023/03/29 06:18:53;;;;;;;10.00;3.70;;;;;;;-128.00;-1.00;-1.00;18461;295;7507299;-31
2023/03/29 06:21:20;;;;;;;12.00;3.60;;;;;;;-128.00;-1.00;-1.00;18494;296;7505207;-30
2023/03/29 06:23:46;;;;;;;12.60;4.90;;;;;;;-128.00;-1.00;-1.00;18506;296;7505647;-34
2023/03/29 06:26:12;;;;;;;6.20;3.60;;;;;;;-128.00;-1.00;-1.00;18461;295;7506690;-29
2023/03/29 06:28:38;;;;;;;6.00;3.80;;;;;;;-128.00;-1.00;-1.00;18473;307;7506932;-29
2023/03/29 06:31:04;;;;;;;11.30;3.70;;;;;;;-128.00;-1.00;-1.00;18493;296;7504265;-30
2023/03/29 06:33:31;;;;;;;10.00;3.40;;;;;;;-128.00;-1.00;-1.00;18473;298;7504829;-30
2023/03/29 06:35:57;;;;;;;7.50;3.70;;;;;;;-128.00;-1.00;-1.00;18476;296;7504515;-31
2023/03/29 06:38:23;;;;;;;8.50;4.60;;;;;;;-128.00;-1.00;-1.00;18483;311;7504625;-35
2023/03/29 06:40:50;;;;;;;8.70;4.10;;;;;;;-128.00;-1.00;-1.00;18461;296;7504138;-31
2023/03/29 06:43:16;;;;;;;9.40;5.20;;;;;;;-128.00;-1.00;-1.00;18465;288;7504406;-31
2023/03/29 06:45:42;;;;;;;6.10;3.10;;;;;;;-128.00;-1.00;-1.00;18486;288;7505741;-30
2023/03/29 06:48:08;;;;;;;11.50;3.60;;;;;;;-128.00;-1.00;-1.00;18483;296;7504345;-35
2023/03/29 06:50:33;;;;;;;16.00;2.80;;;;;;;-128.00;-1.00;-1.00;18477;288;7505710;-34
2023/03/29 06:53:00;;;;;;;11.10;3.50;;;;;;;-128.00;-1.00;-1.00;18891;288;7504592;-30
2023/03/29 06:55:26;;;;;;;21.10;4.60;;;;;;;-128.00;-1.00;-1.00;18497;343;7504768;-30
2023/03/29 06:57:52;;;;;;;7.20;3.10;;;;;;;-128.00;-1.00;-1.00;18466;298;7504935;-34
2023/03/29 07:00:26;;;;;;;11.10;2.90;;;;;;;-128.00;-1.00;-1.00;18455;288;7504875;-34
2023/03/29 07:02:53;;;;;;;9.20;4.20;;;;;;;-128.00;-1.00;-1.00;18471;296;7504643;-34
2023/03/29 07:05:19;;;;;;;6.10;2.70;;;;;;;-128.00;-1.00;-1.00;18455;296;7505533;-33
2023/03/29 07:10:24;;;;;;;8.90;3.60;;;;;;;-128.00;-1.00;-1.00;18448;288;7505586;-33
2023/03/29 07:12:51;;;;;;;6.70;3.60;;;;;;;-128.00;-1.00;-1.00;18469;295;7504506;-30
2023/03/29 07:15:19;;;;;;;3.10;2.20;;;;;;;-128.00;-1.00;-1.00;18472;288;7505853;-29
2023/03/29 07:17:44;;;;;;;4.70;2.90;;;;;;;-128.00;-1.00;-1.00;18487;288;7506667;-32
2023/03/29 07:20:14;;;;;;;11.20;3.80;;;;;;;-128.00;-1.00;-1.00;18872;296;7504472;-31
2023/03/29 07:22:40;;;;;;;7.90;3.20;;;;;;;-128.00;-1.00;-1.00;18475;303;7505951;-34
2023/03/29 07:25:08;;;;;;;8.50;3.80;;;;;;;-128.00;-1.00;-1.00;18464;296;7504916;-30
2023/03/29 07:27:35;;;;;;;10.90;3.90;;;;;;;-128.00;-1.00;-1.00;18464;288;7506446;-31
2023/03/29 07:30:02;;;;;;;7.90;3.50;;;;;;;-128.00;-1.00;-1.00;18436;298;7504356;-30
2023/03/29 07:32:30;;;;;;;5.30;2.40;;;;;;;-128.00;-1.00;-1.00;18474;297;7504621;-33
2023/03/29 07:34:55;;;;;;;3.20;1.70;;;;;;;-128.00;-1.00;-1.00;18473;296;7505937;-30
2023/03/29 07:37:21;;;;;;;10.40;2.50;;;;;;;-128.00;-1.00;-1.00;18459;305;7504590;-30
2023/03/29 07:39:47;;;;;;;5.70;2.80;;;;;;;-128.00;-1.00;-1.00;18459;288;7504774;-34
2023/03/29 07:42:12;;;;;;;6.80;3.00;;;;;;;-128.00;-1.00;-1.00;18466;298;7505295;-30
2023/03/29 07:44:40;;;;;;;5.40;2.50;;;;;;;-128.00;-1.00;-1.00;18881;288;7504547;-33
2023/03/29 07:47:06;;;;;;;2.10;1.30;;;;;;;-128.00;-1.00;-1.00;18474;288;7505367;-31
2023/03/29 07:49:32;;;;;;;6.10;2.30;;;;;;;-128.00;-1.00;-1.00;18863;297;7504809;-34
2023/03/29 07:51:58;;;;;;;6.20;1.90;;;;;;;-128.00;-1.00;-1.00;18870;297;7503938;-31
2023/03/29 07:54:24;;;;;;;5.70;2.60;;;;;;;-128.00;-1.00;-1.00;18896;296;7504504;-32
2023/03/29 07:56:50;;;;;;;6.90;1.80;;;;;;;-128.00;-1.00;-1.00;18894;288;7504459;-34
2023/03/29 07:59:17;;;;;;;6.70;2.00;;;;;;;-128.00;-1.00;-1.00;18865;348;7504347;-34
2023/03/29 08:01:43;;;;;;;5.20;2.40;;;;;;;-128.00;-1.00;-1.00;18899;296;7504235;-34
2023/03/29 08:04:09;;;;;;;6.00;1.80;;;;;;;-128.00;-1.00;-1.00;18485;295;7504501;-35
2023/03/29 08:06:36;;;;;;;7.40;2.30;;;;;;;-128.00;-1.00;-1.00;18487;295;7507071;-35
2023/03/29 08:09:01;;;;;;;4.10;2.30;;;;;;;-128.00;-1.00;-1.00;18472;336;7504339;-31
2023/03/29 08:11:27;;;;;;;6.00;2.10;;;;;;;-128.00;-1.00;-1.00;18487;296;7505674;-31
2023/03/29 08:13:53;;;;;;;4.10;2.10;;;;;;;-128.00;-1.00;-1.00;18463;296;7505987;-34
2023/03/29 08:16:20;;;;;;;5.90;3.00;;;;;;;-128.00;-1.00;-1.00;18461;296;7506651;-34
2023/03/29 08:18:46;;;;;;;3.70;2.40;;;;;;;-128.00;-1.00;-1.00;18472;296;7504536;-35
2023/03/29 08:21:13;;;;;;;5.00;3.00;;;;;;;-128.00;-1.00;-1.00;18477;296;7506426;-32
2023/03/29 08:23:39;;;;;;;6.60;3.30;;;;;;;-128.00;-1.00;-1.00;18486;296;7505869;-32
2023/03/29 08:26:07;;;;;;;8.50;3.00;;;;;;;-128.00;-1.00;-1.00;18450;307;7506506;-31
2023/03/29 08:28:33;;;;;;;7.50;2.60;;;;;;;-128.00;-1.00;-1.00;18469;296;7505288;-31
2023/03/29 08:30:59;;;;;;;3.30;2.30;;;;;;;-128.00;-1.00;-1.00;18472;307;7504586;-34
2023/03/29 08:33:25;;;;;;;3.90;2.50;;;;;;;-128.00;-1.00;-1.00;18475;319;7504362;-35
2023/03/29 08:35:51;;;;;;;4.80;1.70;;;;;;;-128.00;-1.00;-1.00;18493;288;7506664;-35
2023/03/29 08:38:17;;;;;;;4.30;2.00;;;;;;;-128.00;-1.00;-1.00;18474;288;7507389;-35
2023/03/29 08:40:46;;;;;;;4.10;2.20;;;;;;;-128.00;-1.00;-1.00;18494;288;7505930;-32
2023/03/29 08:43:41;;;;;;;3.30;2.60;;;;;;;-128.00;-1.00;-1.00;18484;296;7505921;-36
2023/03/29 08:46:22;;;;;;;6.10;1.70;;;;;;;-128.00;-1.00;-1.00;18479;298;7504394;-36
2023/03/29 08:48:52;;;;;;;5.30;1.70;;;;;;;-128.00;-1.00;-1.00;18482;296;7506618;-32
2023/03/29 08:51:26;;;;;;;5.10;2.30;;;;;;;-128.00;-1.00;-1.00;18494;288;7506244;-31
2023/03/29 08:53:57;;;;;;;3.80;1.70;;;;;;;-128.00;-1.00;-1.00;18473;336;7504648;-33
2023/03/29 08:56:26;;;;;;;8.00;2.00;;;;;;;-128.00;-1.00;-1.00;18518;296;7506521;-30
2023/03/29 08:58:53;;;;;;;1.90;1.00;;;;;;;-128.00;-1.00;-1.00;18449;297;7504969;-36
2023/03/29 09:01:20;;;;;;;2.20;1.10;;;;;;;-128.00;-1.00;-1.00;18477;288;7506278;-33
2023/03/29 09:03:48;;;;;;;3.10;1.50;;;;;;;-128.00;-1.00;-1.00;18496;288;7504726;-32
2023/03/29 09:06:14;;;;;;;3.60;1.60;;;;;;;-128.00;-1.00;-1.00;18506;296;7504803;-32
2023/03/29 09:08:43;;;;;;;2.00;0.80;;;;;;;-128.00;-1.00;-1.00;18459;296;7505165;-35
2023/03/29 09:11:28;;;;;;;4.10;0.70;;;;;;;-128.00;-1.00;-1.00;18450;298;7505701;-30
2023/03/29 09:14:17;;;;;;;7.10;0.60;;;;;;;-128.00;-1.00;-1.00;18514;288;7505088;-31
2023/03/29 09:16:50;;;;;;;2.20;1.00;;;;;;;-128.00;-1.00;-1.00;18493;288;7504703;-36
2023/03/29 09:19:34;;;;;;;4.40;1.30;;;;;;;-128.00;-1.00;-1.00;18492;288;7506221;-31
2023/03/29 09:22:08;;;;;;;4.30;1.50;;;;;;;-128.00;-1.00;-1.00;18521;288;7504143;-31
2023/03/29 09:24:43;;;;;;;2.70;1.50;;;;;;;-128.00;-1.00;-1.00;18480;296;7504684;-32
2023/03/29 09:27:11;;;;;;;4.20;1.30;;;;;;;-128.00;-1.00;-1.00;18483;297;7504547;-35
2023/03/29 09:29:46;;;;;;;5.80;1.00;;;;;;;-128.00;-1.00;-1.00;18499;288;7504466;-30
2023/03/29 09:32:16;;;;;;;2.30;1.10;;;;;;;-128.00;-1.00;-1.00;18453;298;7504880;-34
2023/03/29 09:34:43;;;;;;;2.50;1.10;;;;;;;-128.00;-1.00;-1.00;18501;288;7505334;-32
2023/03/29 09:37:11;;;;;;;5.30;1.40;;;;;;;-128.00;-1.00;-1.00;18486;296;7504947;-31
2023/03/29 09:39:37;;;;;;;1.60;0.60;;;;;;;-128.00;-1.00;-1.00;18486;296;7504929;-35
2023/03/29 09:42:10;;;;;;;51.60;28.00;;;;;;;-128.00;-1.00;-1.00;18493;288;7506410;-35
2023/03/29 09:44:39;;;;;;;81.90;33.60;;;;;;;-128.00;-1.00;-1.00;18512;296;7504709;-31
2023/03/29 09:47:10;;;;;;;14.90;7.10;;;;;;;-128.00;-1.00;-1.00;18442;298;7506442;-31
2023/03/29 09:49:39;;;;;;;16.70;1.20;;;;;;;-128.00;-1.00;-1.00;18470;298;7504169;-35
2023/03/29 09:52:08;;;;;;;3.10;1.10;;;;;;;-128.00;-1.00;-1.00;18466;297;7506750;-35
2023/03/29 09:54:33;;;;;;;3.90;1.30;;;;;;;-128.00;-1.00;-1.00;18495;296;7504922;-30
2023/03/29 09:56:59;;;;;;;2.10;1.00;;;;;;;-128.00;-1.00;-1.00;18456;288;7504465;-34
2023/03/29 09:59:25;;;;;;;1.60;0.80;;;;;;;-128.00;-1.00;-1.00;18480;288;7504446;-34
2023/03/29 10:01:51;;;;;;;2.30;1.10;;;;;;;-128.00;-1.00;-1.00;18468;296;7504801;-34
2023/03/29 10:04:17;;;;;;;5.50;1.60;;;;;;;-128.00;-1.00;-1.00;18444;296;7505411;-30
2023/03/29 10:06:50;;;;;;;2.60;1.20;;;;;;;-128.00;-1.00;-1.00;18455;288;7505768;-31
2023/03/29 10:09:19;;;;;;;2.40;0.90;;;;;;;-128.00;-1.00;-1.00;18497;296;7504300;-35
2023/03/29 10:11:47;;;;;;;2.20;1.10;;;;;;;-128.00;-1.00;-1.00;18512;296;7504359;-35
2023/03/29 10:14:22;;;;;;;2.60;1.40;;;;;;;-128.00;-1.00;-1.00;18474;299;7506061;-35
2023/03/29 10:16:54;;;;;;;4.20;1.30;;;;;;;-128.00;-1.00;-1.00;18461;295;7506455;-35
2023/03/29 10:19:22;;;;;;;1.40;0.40;;;;;;;-128.00;-1.00;-1.00;18434;298;7505840;-34
2023/03/29 10:21:49;;;;;;;2.20;1.00;;;;;;;-128.00;-1.00;-1.00;18469;296;7504127;-34
2023/03/29 10:24:20;;;;;;;1.50;0.90;;;;;;;-128.00;-1.00;-1.00;18484;338;7505261;-35
2023/03/29 10:26:45;;;;;;;0.60;0.40;;;;;;;-128.00;-1.00;-1.00;18459;296;7504664;-31
2023/03/29 10:29:11;;;;;;;2.70;2.30;;;;;;;-128.00;-1.00;-1.00;18465;296;7507232;-35
2023/03/29 10:31:40;;;;;;;6.90;2.40;;;;;;;-128.00;-1.00;-1.00;18897;295;7504144;-34
2023/03/29 10:34:06;;;;;;;6.90;1.50;;;;;;;-128.00;-1.00;-1.00;18492;296;7506190;-35
2023/03/29 10:36:31;;;;;;;3.20;1.00;;;;;;;-128.00;-1.00;-1.00;18473;297;7504401;-32
2023/03/29 10:38:58;;;;;;;2.60;1.10;;;;;;;-128.00;-1.00;-1.00;18452;296;7506389;-30
2023/03/29 10:41:25;;;;;;;10.70;1.60;;;;;;;-128.00;-1.00;-1.00;18479;296;7505448;-35
2023/03/29 10:43:51;;;;;;;2.30;1.10;;;;;;;-128.00;-1.00;-1.00;18476;288;7504352;-34
2023/03/29 10:46:27;;;;;;;4.00;2.00;;;;;;;-128.00;-1.00;-1.00;18464;296;7505238;-31
2023/03/29 10:49:03;;;;;;;16.50;1.20;;;;;;;-128.00;-1.00;-1.00;18472;296;7504264;-31
2023/03/29 10:51:29;;;;;;;2.50;0.80;;;;;;;-128.00;-1.00;-1.00;18480;340;7506177;-31
2023/03/29 10:53:57;;;;;;;7.90;1.30;;;;;;;-128.00;-1.00;-1.00;18451;295;7504576;-35
2023/03/29 10:56:41;;;;;;;2.50;1.30;;;;;;;-128.00;-1.00;-1.00;18471;288;7505155;-39
2023/03/29 10:59:23;;;;;;;6.80;1.90;;;;;;;-128.00;-1.00;-1.00;18500;284;7504765;-37
2023/03/29 11:02:05;;;;;;;1.20;0.70;;;;;;;-128.00;-1.00;-1.00;18455;296;7507173;-32
2023/03/29 11:44:49;;;;;;;8.20;1.30;;;;;;;12.24;31.81;99704.91;100763;298;560209;-29
2023/03/29 11:47:17;;;;;;;1.60;0.80;;;;;;;11.80;32.70;99702.15;100856;298;373172;-30
2023/03/29 11:49:48;;;;;;;3.70;1.10;;;;;;;11.82;32.46;99699.92;101217;297;22676;-29
2023/03/29 11:52:27;;;;;;;3.80;1.10;;;;;;;11.88;32.08;99698.83;101254;297;22579;-29
2023/03/29 11:55:14;;;;;;;1.00;0.40;;;;;;;11.27;32.78;99701.44;101264;297;22973;-33
2023/03/29 11:57:43;;;;;;;1.90;0.80;;;;;;;-100.18;5.90;19938.17;98483;297;1005009;-31
2023/03/29 12:00:15;;;;;;;2.30;1.30;;;;;;;-128.00;-1.00;-1.00;97682;297;1004286;-30
2023/03/29 12:02:43;;;;;;;1.70;0.80;;;;;;;-128.00;-1.00;-1.00;97813;297;1004743;-34
2023/03/29 12:05:20;;;;;;;3.40;1.10;;;;;;;-128.00;-1.00;-1.00;97837;297;1003024;-33
2023/03/29 12:07:55;;;;;;;4.30;0.80;;;;;;;-128.00;-1.00;-1.00;97779;297;1003681;-30
2023/03/29 12:10:22;;;;;;;4.40;0.90;;;;;;;-128.00;-1.00;-1.00;97762;298;1003194;-32
2023/03/29 12:12:55;;;;;;;1.70;0.80;;;;;;;-128.00;-1.00;-1.00;97787;297;1003088;-30
2023/03/29 12:15:23;;;;;;;2.20;0.90;;;;;;;-128.00;-1.00;-1.00;97825;297;1003266;-30
2023/03/29 12:17:57;;;;;;;5.80;0.70;;;;;;;-128.00;-1.00;-1.00;97692;297;1003611;-29
2023/03/29 12:20:30;;;;;;;4.10;0.80;;;;;;;-128.00;-1.00;-1.00;97762;297;1003360;-34
2023/03/29 12:22:56;;;;;;;2.20;0.80;;;;;;;-128.00;-1.00;-1.00;97767;297;1003626;-30
2023/03/29 12:25:28;;;;;;;2.70;1.20;;;;;;;-128.00;-1.00;-1.00;97724;297;1003356;-33
2023/03/29 12:28:25;;;;;;;0.90;0.60;;;;;;;-128.00;-1.00;-1.00;97841;297;1002838;-38
2023/03/29 12:31:15;;;;;;;2.40;0.90;;;;;;;-128.00;-1.00;-1.00;97790;297;1003083;-32
2023/03/29 12:34:11;;;;;;;2.30;0.80;;;;;;;-128.00;-1.00;-1.00;97843;297;1002938;-31
2023/03/29 12:37:02;;;;;;;4.60;1.10;;;;;;;-128.00;-1.00;-1.00;97758;297;1004975;-30
2023/03/29 12:39:28;;;;;;;3.00;0.90;;;;;;;-128.00;-1.00;-1.00;97740;285;1002840;-30
2023/03/29 12:42:15;;;;;;;3.70;0.70;;;;;;;-128.00;-1.00;-1.00;97775;297;1003324;-30
2023/03/29 12:44:44;;;;;;;3.30;1.80;;;;;;;-128.00;-1.00;-1.00;97751;298;1003289;-33
2023/03/29 12:47:16;;;;;;;2.80;1.00;;;;;;;-128.00;-1.00;-1.00;97700;297;1004890;-28
2023/03/29 12:49:45;;;;;;;3.30;0.90;;;;;;;-128.00;-1.00;-1.00;97779;298;1003826;-33
2023/03/29 12:52:32;;;;;;;3.70;0.70;;;;;;;-128.00;-1.00;-1.00;97729;298;1003402;-33
2023/03/29 12:55:00;;;;;;;5.40;1.00;;;;;;;-128.00;-1.00;-1.00;97817;297;1003082;-28
2023/03/29 12:57:39;;;;;;;2.60;0.90;;;;;;;-128.00;-1.00;-1.00;97803;297;1003722;-30